QLK1738 YSCB-YSSY
Flight info
| Callsign | QLK1738 |
|---|---|
| Flight time | N/A |
| Altitude | 15000 |
| Route | CB W122 AKMIR W113 ODALE |
| Aircraft | DH8D/M-SDE2E3FGRY/H |
Departure
| Time | 2026-05-04 10:20 |
|---|---|
| Airport | Canberra Airport (YSCB) |
Arrival
| Time | N/A |
|---|---|
| Airport | Sydney Kingsford Smith International Airport (YSSY) |
| Time | Latitude | Longitude | Altitude | Speed | Heading |
|---|---|---|---|---|---|
| 2026-05-04 09:21 | -35.30599 | 149.18953 | 1869 ft | 0 kts | 206° |
| 2026-05-04 10:08 | -35.30542 | 149.18986 | 1870 ft | 1 kts | 206° |
| 2026-05-04 10:08 | -35.30534 | 149.18990 | 1870 ft | 1 kts | 195° |
| 2026-05-04 10:08 | -35.30520 | 149.18989 | 1870 ft | 2 kts | 157° |
| 2026-05-04 10:08 | -35.30511 | 149.18981 | 1870 ft | 1 kts | 131° |
| 2026-05-04 10:09 | -35.30510 | 149.18980 | 1870 ft | 0 kts | 131° |
| 2026-05-04 10:13 | -35.30511 | 149.18980 | 1870 ft | 1 kts | 131° |
| 2026-05-04 10:13 | -35.30562 | 149.19051 | 1871 ft | 20 kts | 131° |
| 2026-05-04 10:13 | -35.30652 | 149.19185 | 1874 ft | 20 kts | 131° |
| 2026-05-04 10:14 | -35.30770 | 149.19238 | 1875 ft | 17 kts | 180° |
| 2026-05-04 10:14 | -35.30883 | 149.19239 | 1875 ft | 15 kts | 178° |
| 2026-05-04 10:16 | -35.31875 | 149.19240 | 1872 ft | 17 kts | 181° |
| 2026-05-04 10:16 | -35.31985 | 149.19280 | 1873 ft | 9 kts | 130° |
| 2026-05-04 10:16 | -35.31995 | 149.19299 | 1873 ft | 0 kts | 118° |
| 2026-05-04 10:19 | -35.31967 | 149.19443 | 1876 ft | 10 kts | 6° |
| 2026-05-04 10:19 | -35.31904 | 149.19442 | 1876 ft | 10 kts | 358° |
| 2026-05-04 10:19 | -35.31703 | 149.19446 | 1876 ft | 55 kts | 359° |
| 2026-05-04 10:19 | -35.31052 | 149.19440 | 1879 ft | 134 kts | 0° |
| 2026-05-04 10:20 | -35.29946 | 149.19452 | 2041 ft | 173 kts | 358° |
| 2026-05-04 10:20 | -35.28803 | 149.19404 | 2669 ft | 180 kts | 351° |
| 2026-05-04 10:20 | -35.27584 | 149.19399 | 3479 ft | 182 kts | 359° |
| 2026-05-04 10:20 | -35.26338 | 149.19579 | 4356 ft | 184 kts | 2° |
| 2026-05-04 10:21 | -35.25299 | 149.20003 | 5026 ft | 194 kts | 26° |
| 2026-05-04 10:21 | -35.24474 | 149.20828 | 5663 ft | 201 kts | 34° |
| 2026-05-04 10:21 | -35.23233 | 149.22178 | 6662 ft | 202 kts | 32° |
| 2026-05-04 10:21 | -35.22183 | 149.23271 | 7524 ft | 201 kts | 30° |
| 2026-05-04 10:22 | -35.19382 | 149.26079 | 9775 ft | 188 kts | 27° |
| 2026-05-04 10:22 | -35.18482 | 149.26951 | 10468 ft | 186 kts | 26° |
| 2026-05-04 10:23 | -35.17478 | 149.27918 | 11211 ft | 183 kts | 25° |
| 2026-05-04 10:23 | -35.16469 | 149.28878 | 11918 ft | 182 kts | 25° |
| 2026-05-04 10:25 | -35.09333 | 149.35154 | 15042 ft | 218 kts | 23° |
| 2026-05-04 10:25 | -35.08332 | 149.35969 | 15075 ft | 234 kts | 23° |
| 2026-05-04 10:25 | -35.07516 | 149.36637 | 15092 ft | 247 kts | 24° |
| 2026-05-04 10:25 | -35.05390 | 149.38394 | 15095 ft | 275 kts | 25° |
| 2026-05-04 10:26 | -35.03972 | 149.39575 | 15087 ft | 288 kts | 26° |
| 2026-05-04 10:26 | -35.00200 | 149.42732 | 15084 ft | 312 kts | 26° |
| 2026-05-04 10:26 | -34.98587 | 149.44083 | 15081 ft | 319 kts | 27° |
| 2026-05-04 10:27 | -34.96945 | 149.45461 | 15084 ft | 321 kts | 27° |
| 2026-05-04 10:27 | -34.94873 | 149.47197 | 15078 ft | 327 kts | 27° |
| 2026-05-04 10:27 | -34.93158 | 149.48632 | 15074 ft | 330 kts | 27° |
| 2026-05-04 10:27 | -34.91593 | 149.49941 | 15067 ft | 330 kts | 27° |
| 2026-05-04 10:28 | -34.89178 | 149.51957 | 15081 ft | 332 kts | 27° |
| 2026-05-04 10:28 | -34.87431 | 149.53412 | 15066 ft | 335 kts | 27° |
| 2026-05-04 10:28 | -34.85870 | 149.54716 | 15078 ft | 334 kts | 27° |
| 2026-05-04 10:29 | -34.82949 | 149.57150 | 15071 ft | 336 kts | 27° |
| 2026-05-04 10:29 | -34.81293 | 149.58526 | 15072 ft | 335 kts | 27° |
| 2026-05-04 10:29 | -34.79385 | 149.60112 | 15081 ft | 334 kts | 27° |
| 2026-05-04 10:29 | -34.77278 | 149.61859 | 15076 ft | 338 kts | 27° |
| 2026-05-04 10:30 | -34.75438 | 149.63385 | 15069 ft | 339 kts | 27° |
| 2026-05-04 10:30 | -34.74238 | 149.64381 | 15079 ft | 339 kts | 27° |
| 2026-05-04 10:30 | -34.71564 | 149.66525 | 15061 ft | 336 kts | 22° |
| 2026-05-04 10:30 | -34.69514 | 149.67352 | 15074 ft | 316 kts | 3° |
| 2026-05-04 10:31 | -34.67497 | 149.67277 | 15073 ft | 295 kts | 346° |
| 2026-05-04 10:31 | -34.65498 | 149.66761 | 15061 ft | 292 kts | 343° |
| 2026-05-04 10:32 | -34.54449 | 149.63574 | 15068 ft | 276 kts | 342° |
| 2026-05-04 10:33 | -34.52644 | 149.63060 | 15082 ft | 276 kts | 342° |
| 2026-05-04 10:33 | -34.51050 | 149.62604 | 15079 ft | 272 kts | 342° |
| 2026-05-04 10:33 | -34.49069 | 149.62044 | 15080 ft | 270 kts | 343° |
| 2026-05-04 10:33 | -34.47232 | 149.61517 | 15090 ft | 272 kts | 342° |
| 2026-05-04 10:34 | -34.45544 | 149.61034 | 15084 ft | 271 kts | 342° |
| 2026-05-04 10:34 | -34.43717 | 149.60512 | 15088 ft | 271 kts | 342° |
| 2026-05-04 10:34 | -34.41865 | 149.59979 | 15091 ft | 274 kts | 342° |
| 2026-05-04 10:34 | -34.40369 | 149.59551 | 15085 ft | 274 kts | 342° |
| 2026-05-04 10:35 | -34.38296 | 149.59003 | 15069 ft | 275 kts | 347° |
| 2026-05-04 10:35 | -34.37001 | 149.59089 | 15068 ft | 288 kts | 7° |
| 2026-05-04 10:35 | -34.34892 | 149.60820 | 15079 ft | 316 kts | 43° |
| 2026-05-04 10:35 | -34.33937 | 149.63086 | 15095 ft | 325 kts | 60° |
| 2026-05-04 10:36 | -34.33088 | 149.65812 | 15091 ft | 328 kts | 61° |
| 2026-05-04 10:36 | -34.32318 | 149.68266 | 15087 ft | 329 kts | 60° |
| 2026-05-04 10:36 | -34.31518 | 149.70764 | 15085 ft | 328 kts | 60° |
| 2026-05-04 10:36 | -34.30676 | 149.73345 | 15091 ft | 331 kts | 60° |
| 2026-05-04 10:37 | -34.29874 | 149.75764 | 15088 ft | 331 kts | 60° |
| 2026-05-04 10:37 | -34.29037 | 149.78268 | 15084 ft | 329 kts | 59° |
| 2026-05-04 10:37 | -34.28171 | 149.80835 | 15085 ft | 331 kts | 59° |
| 2026-05-04 10:37 | -34.27375 | 149.83176 | 15090 ft | 331 kts | 59° |
| 2026-05-04 10:39 | -34.22247 | 149.98105 | 15086 ft | 330 kts | 59° |
| 2026-05-04 10:39 | -34.21477 | 150.00331 | 15073 ft | 328 kts | 59° |
| 2026-05-04 10:39 | -34.20540 | 150.03041 | 15068 ft | 326 kts | 59° |
| 2026-05-04 10:40 | -34.19673 | 150.05538 | 15088 ft | 327 kts | 59° |
| 2026-05-04 10:40 | -34.18900 | 150.07766 | 15078 ft | 325 kts | 59° |
| 2026-05-04 10:40 | -34.18011 | 150.10359 | 15064 ft | 325 kts | 60° |
| 2026-05-04 10:40 | -34.17339 | 150.12995 | 15072 ft | 332 kts | 67° |
| 2026-05-04 10:41 | -34.16839 | 150.15338 | 15068 ft | 329 kts | 68° |
| 2026-05-04 10:41 | -34.16250 | 150.18112 | 15068 ft | 329 kts | 68° |
| 2026-05-04 10:41 | -34.15677 | 150.20793 | 15072 ft | 331 kts | 68° |
| 2026-05-04 10:41 | -34.15339 | 150.22372 | 15079 ft | 331 kts | 68° |
| 2026-05-04 10:42 | -34.14582 | 150.25896 | 15063 ft | 330 kts | 68° |
| 2026-05-04 10:42 | -34.14001 | 150.28589 | 15061 ft | 333 kts | 68° |
| 2026-05-04 10:42 | -34.13467 | 150.31055 | 15019 ft | 334 kts | 68° |
| 2026-05-04 10:42 | -34.12878 | 150.33770 | 14800 ft | 340 kts | 68° |
| 2026-05-04 10:43 | -34.12273 | 150.36546 | 14593 ft | 346 kts | 68° |
| 2026-05-04 10:44 | -34.08346 | 150.54603 | 12425 ft | 291 kts | 68° |
| 2026-05-04 10:45 | -34.07938 | 150.56506 | 12081 ft | 284 kts | 68° |
| 2026-05-04 10:45 | -34.07395 | 150.59028 | 11610 ft | 275 kts | 68° |
| 2026-05-04 10:45 | -34.06921 | 150.61221 | 11205 ft | 271 kts | 68° |
| 2026-05-04 10:45 | -34.06646 | 150.62497 | 10964 ft | 267 kts | 68° |
| 2026-05-04 10:46 | -34.06034 | 150.65331 | 10331 ft | 261 kts | 68° |
| 2026-05-04 10:46 | -34.05729 | 150.66736 | 10005 ft | 261 kts | 68° |
| 2026-05-04 10:46 | -34.05160 | 150.69350 | 9401 ft | 260 kts | 68° |
| 2026-05-04 10:46 | -34.04712 | 150.71422 | 8917 ft | 258 kts | 68° |
| 2026-05-04 10:47 | -34.04260 | 150.73500 | 8435 ft | 257 kts | 68° |
| 2026-05-04 10:47 | -34.03844 | 150.75417 | 7974 ft | 255 kts | 69° |
| 2026-05-04 10:47 | -34.03452 | 150.77227 | 7524 ft | 253 kts | 69° |
| 2026-05-04 10:47 | -34.03034 | 150.79134 | 7071 ft | 251 kts | 69° |
| 2026-05-04 10:49 | -33.99173 | 150.95616 | 6917 ft | 279 kts | 69° |
| 2026-05-04 10:50 | -33.98680 | 150.97722 | 6944 ft | 253 kts | 68° |
| 2026-05-04 10:51 | -33.98397 | 151.10709 | 6988 ft | 262 kts | 94° |
| 2026-05-04 10:52 | -33.98709 | 151.13419 | 7004 ft | 267 kts | 94° |
| 2026-05-04 10:52 | -33.98901 | 151.15092 | 7007 ft | 269 kts | 94° |
| 2026-05-04 10:52 | -33.99217 | 151.17770 | 7009 ft | 276 kts | 94° |